sensor_id;sensor_type;location;lat;lon;timestamp;temperature;humidity
26262;DHT22;13988;52.446;13.280;2022-11-25T00:01:12;3.50;99.90
26262;DHT22;13988;52.446;13.280;2022-11-25T00:03:39;3.50;99.90
26262;DHT22;13988;52.446;13.280;2022-11-25T00:08:37;3.50;99.90
26262;DHT22;13988;52.446;13.280;2022-11-25T00:11:03;3.50;99.90
26262;DHT22;13988;52.446;13.280;2022-11-25T00:13:30;3.50;99.90
26262;DHT22;13988;52.446;13.280;2022-11-25T00:15:59;3.60;99.90
26262;DHT22;13988;52.446;13.280;2022-11-25T00:18:25;3.50;99.90
26262;DHT22;13988;52.446;13.280;2022-11-25T00:20:50;3.50;99.90
26262;DHT22;13988;52.446;13.280;2022-11-25T00:23:16;3.50;99.90
26262;DHT22;13988;52.446;13.280;2022-11-25T00:25:41;3.60;99.90
26262;DHT22;13988;52.446;13.280;2022-11-25T00:28:07;3.50;99.90
26262;DHT22;13988;52.446;13.280;2022-11-25T00:30:33;3.50;99.90
26262;DHT22;13988;52.446;13.280;2022-11-25T00:32:58;3.60;99.90
26262;DHT22;13988;52.446;13.280;2022-11-25T00:35:24;3.60;99.90
26262;DHT22;13988;52.446;13.280;2022-11-25T00:37:49;3.60;99.90
26262;DHT22;13988;52.446;13.280;2022-11-25T00:40:15;3.60;99.90
26262;DHT22;13988;52.446;13.280;2022-11-25T00:42:40;3.60;99.90
26262;DHT22;13988;52.446;13.280;2022-11-25T00:45:25;3.60;99.90
26262;DHT22;13988;52.446;13.280;2022-11-25T00:47:52;3.60;99.90
26262;DHT22;13988;52.446;13.280;2022-11-25T00:50:17;3.60;99.90
26262;DHT22;13988;52.446;13.280;2022-11-25T00:52:43;3.60;99.90
26262;DHT22;13988;52.446;13.280;2022-11-25T00:55:09;3.70;99.90
26262;DHT22;13988;52.446;13.280;2022-11-25T00:57:34;3.60;99.90
26262;DHT22;13988;52.446;13.280;2022-11-25T01:00:00;3.60;99.90
26262;DHT22;13988;52.446;13.280;2022-11-25T01:02:26;3.60;99.90
26262;DHT22;13988;52.446;13.280;2022-11-25T01:04:51;3.70;99.90
26262;DHT22;13988;52.446;13.280;2022-11-25T01:07:17;3.70;99.90
26262;DHT22;13988;52.446;13.280;2022-11-25T01:09:43;3.60;99.90
26262;DHT22;13988;52.446;13.280;2022-11-25T01:12:09;3.60;99.90
26262;DHT22;13988;52.446;13.280;2022-11-25T01:14:35;3.70;99.90
26262;DHT22;13988;52.446;13.280;2022-11-25T01:17:01;3.70;99.90
26262;DHT22;13988;52.446;13.280;2022-11-25T01:19:27;3.80;99.90
26262;DHT22;13988;52.446;13.280;2022-11-25T01:21:52;3.70;99.90
26262;DHT22;13988;52.446;13.280;2022-11-25T01:24:18;3.70;99.90
26262;DHT22;13988;52.446;13.280;2022-11-25T01:26:44;3.60;99.90
26262;DHT22;13988;52.446;13.280;2022-11-25T01:29:15;3.60;99.90
26262;DHT22;13988;52.446;13.280;2022-11-25T01:31:41;3.60;99.90
26262;DHT22;13988;52.446;13.280;2022-11-25T01:34:21;3.70;99.90
26262;DHT22;13988;52.446;13.280;2022-11-25T01:36:47;3.70;99.90
26262;DHT22;13988;52.446;13.280;2022-11-25T01:39:19;3.70;99.90
26262;DHT22;13988;52.446;13.280;2022-11-25T01:41:46;3.70;99.90
26262;DHT22;13988;52.446;13.280;2022-11-25T01:44:22;3.70;99.90
26262;DHT22;13988;52.446;13.280;2022-11-25T01:47:11;3.70;99.90
26262;DHT22;13988;52.446;13.280;2022-11-25T01:49:45;3.70;99.90
26262;DHT22;13988;52.446;13.280;2022-11-25T01:52:17;3.80;99.90
26262;DHT22;13988;52.446;13.280;2022-11-25T01:55:02;3.80;99.90
26262;DHT22;13988;52.446;13.280;2022-11-25T01:57:51;3.70;99.90
26262;DHT22;13988;52.446;13.280;2022-11-25T02:00:18;3.70;99.90
26262;DHT22;13988;52.446;13.280;2022-11-25T02:02:45;3.80;99.90
26262;DHT22;13988;52.446;13.280;2022-11-25T02:05:13;3.70;99.90
26262;DHT22;13988;52.446;13.280;2022-11-25T02:07:44;3.70;99.90
26262;DHT22;13988;52.446;13.280;2022-11-25T02:10:14;3.70;99.90
26262;DHT22;13988;52.446;13.280;2022-11-25T02:12:43;3.70;99.90
26262;DHT22;13988;52.446;13.280;2022-11-25T02:15:10;3.60;99.90
26262;DHT22;13988;52.446;13.280;2022-11-25T02:17:36;3.60;99.90
26262;DHT22;13988;52.446;13.280;2022-11-25T02:25:36;3.60;99.90
26262;DHT22;13988;52.446;13.280;2022-11-25T02:28:11;3.60;99.90
26262;DHT22;13988;52.446;13.280;2022-11-25T02:30:37;3.60;99.90
26262;DHT22;13988;52.446;13.280;2022-11-25T02:33:03;3.70;99.90
26262;DHT22;13988;52.446;13.280;2022-11-25T02:35:38;3.80;99.90
26262;DHT22;13988;52.446;13.280;2022-11-25T02:38:16;3.70;99.90
26262;DHT22;13988;52.446;13.280;2022-11-25T02:40:48;3.70;99.90
26262;DHT22;13988;52.446;13.280;2022-11-25T02:43:14;3.70;99.90
26262;DHT22;13988;52.446;13.280;2022-11-25T02:45:48;3.80;99.90
26262;DHT22;13988;52.446;13.280;2022-11-25T02:48:14;3.70;99.90
26262;DHT22;13988;52.446;13.280;2022-11-25T02:50:40;3.80;99.90
26262;DHT22;13988;52.446;13.280;2022-11-25T02:53:06;3.60;99.90
26262;DHT22;13988;52.446;13.280;2022-11-25T02:55:33;3.60;99.90
26262;DHT22;13988;52.446;13.280;2022-11-25T02:57:58;3.50;99.90
26262;DHT22;13988;52.446;13.280;2022-11-25T03:00:24;3.50;99.90
26262;DHT22;13988;52.446;13.280;2022-11-25T03:02:52;3.50;99.90
26262;DHT22;13988;52.446;13.280;2022-11-25T03:05:18;3.60;99.90
26262;DHT22;13988;52.446;13.280;2022-11-25T03:07:43;3.50;99.90
26262;DHT22;13988;52.446;13.280;2022-11-25T03:10:09;3.50;99.90
26262;DHT22;13988;52.446;13.280;2022-11-25T03:12:35;3.60;99.90
26262;DHT22;13988;52.446;13.280;2022-11-25T03:15:00;3.50;99.90
26262;DHT22;13988;52.446;13.280;2022-11-25T03:17:26;3.50;99.90
26262;DHT22;13988;52.446;13.280;2022-11-25T03:19:51;3.70;99.90
26262;DHT22;13988;52.446;13.280;2022-11-25T03:22:17;3.50;99.90
26262;DHT22;13988;52.446;13.280;2022-11-25T03:24:43;3.50;99.90
26262;DHT22;13988;52.446;13.280;2022-11-25T03:27:09;3.50;99.90
26262;DHT22;13988;52.446;13.280;2022-11-25T03:29:34;3.60;99.90
26262;DHT22;13988;52.446;13.280;2022-11-25T03:32:00;3.50;99.90
26262;DHT22;13988;52.446;13.280;2022-11-25T03:34:25;3.60;99.90
26262;DHT22;13988;52.446;13.280;2022-11-25T03:36:51;3.60;99.90
26262;DHT22;13988;52.446;13.280;2022-11-25T03:39:17;3.60;99.90
26262;DHT22;13988;52.446;13.280;2022-11-25T03:41:42;3.60;99.90
26262;DHT22;13988;52.446;13.280;2022-11-25T03:44:08;3.60;99.90
26262;DHT22;13988;52.446;13.280;2022-11-25T03:46:33;3.60;99.90
26262;DHT22;13988;52.446;13.280;2022-11-25T03:48:59;3.50;99.90
26262;DHT22;13988;52.446;13.280;2022-11-25T03:51:25;3.50;99.90
26262;DHT22;13988;52.446;13.280;2022-11-25T03:53:50;3.60;99.90
26262;DHT22;13988;52.446;13.280;2022-11-25T03:56:16;3.60;99.90
26262;DHT22;13988;52.446;13.280;2022-11-25T03:58:42;3.60;99.90
26262;DHT22;13988;52.446;13.280;2022-11-25T04:01:07;3.60;99.90
26262;DHT22;13988;52.446;13.280;2022-11-25T04:03:33;3.70;99.90
26262;DHT22;13988;52.446;13.280;2022-11-25T04:05:59;3.60;99.90
26262;DHT22;13988;52.446;13.280;2022-11-25T04:08:24;3.70;99.90
26262;DHT22;13988;52.446;13.280;2022-11-25T04:10:51;3.60;99.90
26262;DHT22;13988;52.446;13.280;2022-11-25T04:13:18;3.60;99.90
26262;DHT22;13988;52.446;13.280;2022-11-25T04:15:48;3.60;99.90
26262;DHT22;13988;52.446;13.280;2022-11-25T04:18:14;3.70;99.90
26262;DHT22;13988;52.446;13.280;2022-11-25T04:20:40;3.70;99.90
26262;DHT22;13988;52.446;13.280;2022-11-25T04:23:06;3.70;99.90
26262;DHT22;13988;52.446;13.280;2022-11-25T04:25:33;3.70;99.90
26262;DHT22;13988;52.446;13.280;2022-11-25T04:27:59;3.70;99.90
26262;DHT22;13988;52.446;13.280;2022-11-25T04:30:24;3.70;99.90
26262;DHT22;13988;52.446;13.280;2022-11-25T04:32:50;3.60;99.90
26262;DHT22;13988;52.446;13.280;2022-11-25T04:35:16;3.70;99.90
26262;DHT22;13988;52.446;13.280;2022-11-25T04:37:41;3.70;99.90
26262;DHT22;13988;52.446;13.280;2022-11-25T04:40:07;3.70;99.90
26262;DHT22;13988;52.446;13.280;2022-11-25T04:42:33;3.70;99.90
26262;DHT22;13988;52.446;13.280;2022-11-25T04:45:05;3.70;99.90
26262;DHT22;13988;52.446;13.280;2022-11-25T04:47:32;3.70;99.90
26262;DHT22;13988;52.446;13.280;2022-11-25T04:49:58;3.80;99.90
26262;DHT22;13988;52.446;13.280;2022-11-25T04:52:24;3.70;99.90
26262;DHT22;13988;52.446;13.280;2022-11-25T04:54:50;3.70;99.90
26262;DHT22;13988;52.446;13.280;2022-11-25T04:57:15;3.70;99.90
26262;DHT22;13988;52.446;13.280;2022-11-25T04:59:42;3.80;99.90
26262;DHT22;13988;52.446;13.280;2022-11-25T05:04:40;3.90;99.90
26262;DHT22;13988;52.446;13.280;2022-11-25T05:07:06;3.80;99.90
26262;DHT22;13988;52.446;13.280;2022-11-25T05:09:31;3.80;99.90
26262;DHT22;13988;52.446;13.280;2022-11-25T05:11:57;3.80;99.90
26262;DHT22;13988;52.446;13.280;2022-11-25T05:14:23;3.80;99.90
26262;DHT22;13988;52.446;13.280;2022-11-25T05:16:50;3.90;99.90
26262;DHT22;13988;52.446;13.280;2022-11-25T05:19:15;3.80;99.90
26262;DHT22;13988;52.446;13.280;2022-11-25T05:21:41;3.80;99.90
26262;DHT22;13988;52.446;13.280;2022-11-25T05:24:07;3.80;99.90
26262;DHT22;13988;52.446;13.280;2022-11-25T05:26:32;3.80;99.90
26262;DHT22;13988;52.446;13.280;2022-11-25T05:28:58;3.80;99.90
26262;DHT22;13988;52.446;13.280;2022-11-25T05:31:24;3.80;99.90
26262;DHT22;13988;52.446;13.280;2022-11-25T05:33:49;3.80;99.90
26262;DHT22;13988;52.446;13.280;2022-11-25T05:36:15;3.80;99.90
26262;DHT22;13988;52.446;13.280;2022-11-25T05:38:41;3.80;99.90
26262;DHT22;13988;52.446;13.280;2022-11-25T05:41:06;3.80;99.90
26262;DHT22;13988;52.446;13.280;2022-11-25T05:43:32;3.80;99.90
26262;DHT22;13988;52.446;13.280;2022-11-25T05:45:58;3.80;99.90
26262;DHT22;13988;52.446;13.280;2022-11-25T05:48:23;3.90;99.90
26262;DHT22;13988;52.446;13.280;2022-11-25T05:50:49;3.80;99.90
26262;DHT22;13988;52.446;13.280;2022-11-25T05:53:15;3.80;99.90
26262;DHT22;13988;52.446;13.280;2022-11-25T05:55:44;3.80;99.90
26262;DHT22;13988;52.446;13.280;2022-11-25T05:58:09;3.80;99.90
26262;DHT22;13988;52.446;13.280;2022-11-25T06:00:35;4.00;99.90
26262;DHT22;13988;52.446;13.280;2022-11-25T06:03:00;3.80;99.90
26262;DHT22;13988;52.446;13.280;2022-11-25T06:05:26;3.70;99.90
26262;DHT22;13988;52.446;13.280;2022-11-25T06:07:52;3.70;99.90
26262;DHT22;13988;52.446;13.280;2022-11-25T06:10:18;3.60;99.90
26262;DHT22;13988;52.446;13.280;2022-11-25T06:12:44;3.40;99.90
26262;DHT22;13988;52.446;13.280;2022-11-25T06:15:10;3.40;99.90
26262;DHT22;13988;52.446;13.280;2022-11-25T06:17:36;3.30;99.90
26262;DHT22;13988;52.446;13.280;2022-11-25T06:20:03;3.20;99.90
26262;DHT22;13988;52.446;13.280;2022-11-25T06:22:28;3.20;99.90
26262;DHT22;13988;52.446;13.280;2022-11-25T06:24:54;3.10;99.90
26262;DHT22;13988;52.446;13.280;2022-11-25T06:27:20;3.10;99.90
26262;DHT22;13988;52.446;13.280;2022-11-25T06:29:45;3.00;99.90
26262;DHT22;13988;52.446;13.280;2022-11-25T06:32:11;3.00;99.90
26262;DHT22;13988;52.446;13.280;2022-11-25T06:34:37;3.00;99.90
26262;DHT22;13988;52.446;13.280;2022-11-25T06:37:07;3.00;99.90
26262;DHT22;13988;52.446;13.280;2022-11-25T06:39:33;2.90;99.90
26262;DHT22;13988;52.446;13.280;2022-11-25T06:41:58;2.90;99.90
26262;DHT22;13988;52.446;13.280;2022-11-25T06:44:24;2.90;99.90
26262;DHT22;13988;52.446;13.280;2022-11-25T06:46:50;3.00;99.90
26262;DHT22;13988;52.446;13.280;2022-11-25T06:49:15;2.80;99.90
26262;DHT22;13988;52.446;13.280;2022-11-25T06:51:41;2.70;99.90
26262;DHT22;13988;52.446;13.280;2022-11-25T06:54:06;2.70;99.90
26262;DHT22;13988;52.446;13.280;2022-11-25T06:56:33;2.70;99.90
26262;DHT22;13988;52.446;13.280;2022-11-25T06:58:58;2.70;99.90
26262;DHT22;13988;52.446;13.280;2022-11-25T07:01:28;2.70;99.90
26262;DHT22;13988;52.446;13.280;2022-11-25T07:04:00;2.70;99.90
26262;DHT22;13988;52.446;13.280;2022-11-25T07:06:26;2.70;99.90
26262;DHT22;13988;52.446;13.280;2022-11-25T07:08:51;2.60;99.90
26262;DHT22;13988;52.446;13.280;2022-11-25T07:14:01;2.70;99.90
26262;DHT22;13988;52.446;13.280;2022-11-25T07:16:27;3.00;99.90
26262;DHT22;13988;52.446;13.280;2022-11-25T07:18:53;2.90;99.90
26262;DHT22;13988;52.446;13.280;2022-11-25T07:21:22;2.80;99.90
26262;DHT22;13988;52.446;13.280;2022-11-25T07:23:49;2.90;99.90
26262;DHT22;13988;52.446;13.280;2022-11-25T07:26:20;3.00;99.90
26262;DHT22;13988;52.446;13.280;2022-11-25T07:28:47;3.10;99.90
26262;DHT22;13988;52.446;13.280;2022-11-25T07:33:41;3.10;99.90
26262;DHT22;13988;52.446;13.280;2022-11-25T07:36:09;3.20;99.90
26262;DHT22;13988;52.446;13.280;2022-11-25T07:38:36;3.20;99.90
26262;DHT22;13988;52.446;13.280;2022-11-25T07:43:31;3.30;99.90
26262;DHT22;13988;52.446;13.280;2022-11-25T07:48:35;3.40;99.90
26262;DHT22;13988;52.446;13.280;2022-11-25T07:51:00;3.50;99.90
26262;DHT22;13988;52.446;13.280;2022-11-25T07:53:26;3.50;99.90
26262;DHT22;13988;52.446;13.280;2022-11-25T07:55:51;3.50;99.90
26262;DHT22;13988;52.446;13.280;2022-11-25T07:58:17;3.50;99.90
26262;DHT22;13988;52.446;13.280;2022-11-25T08:00:42;3.60;99.90
26262;DHT22;13988;52.446;13.280;2022-11-25T08:03:08;3.60;99.90
26262;DHT22;13988;52.446;13.280;2022-11-25T08:05:34;3.70;99.90
26262;DHT22;13988;52.446;13.280;2022-11-25T08:07:59;3.80;99.90
26262;DHT22;13988;52.446;13.280;2022-11-25T08:10:25;3.80;99.90
26262;DHT22;13988;52.446;13.280;2022-11-25T08:12:50;3.80;99.90
26262;DHT22;13988;52.446;13.280;2022-11-25T08:15:16;3.90;99.90
26262;DHT22;13988;52.446;13.280;2022-11-25T08:17:42;3.90;99.90
26262;DHT22;13988;52.446;13.280;2022-11-25T08:20:07;3.90;99.90
26262;DHT22;13988;52.446;13.280;2022-11-25T08:22:33;3.90;99.90
26262;DHT22;13988;52.446;13.280;2022-11-25T08:24:59;4.00;99.90
26262;DHT22;13988;52.446;13.280;2022-11-25T08:27:24;4.00;99.90
26262;DHT22;13988;52.446;13.280;2022-11-25T08:29:50;4.10;99.90
26262;DHT22;13988;52.446;13.280;2022-11-25T08:32:16;4.20;99.90
26262;DHT22;13988;52.446;13.280;2022-11-25T08:34:41;4.10;99.90
26262;DHT22;13988;52.446;13.280;2022-11-25T08:37:07;4.10;99.90
26262;DHT22;13988;52.446;13.280;2022-11-25T08:39:33;4.10;99.90
26262;DHT22;13988;52.446;13.280;2022-11-25T08:42:02;4.20;99.90
26262;DHT22;13988;52.446;13.280;2022-11-25T08:44:28;4.20;99.90
26262;DHT22;13988;52.446;13.280;2022-11-25T08:46:54;4.20;99.90
26262;DHT22;13988;52.446;13.280;2022-11-25T08:49:20;4.20;99.90
26262;DHT22;13988;52.446;13.280;2022-11-25T08:51:46;4.20;99.90
26262;DHT22;13988;52.446;13.280;2022-11-25T08:54:12;4.30;99.90
26262;DHT22;13988;52.446;13.280;2022-11-25T08:56:38;4.30;99.90
26262;DHT22;13988;52.446;13.280;2022-11-25T08:59:05;4.30;99.90
26262;DHT22;13988;52.446;13.280;2022-11-25T09:01:31;4.30;99.90
26262;DHT22;13988;52.446;13.280;2022-11-25T09:03:57;4.30;99.90
26262;DHT22;13988;52.446;13.280;2022-11-25T09:06:26;4.40;99.90
26262;DHT22;13988;52.446;13.280;2022-11-25T09:08:55;4.50;99.90
26262;DHT22;13988;52.446;13.280;2022-11-25T09:11:21;4.50;99.90
26262;DHT22;13988;52.446;13.280;2022-11-25T09:13:46;4.60;99.90
26262;DHT22;13988;52.446;13.280;2022-11-25T09:16:12;4.60;99.90
26262;DHT22;13988;52.446;13.280;2022-11-25T09:18:39;4.70;99.90
26262;DHT22;13988;52.446;13.280;2022-11-25T09:21:09;4.80;99.90
26262;DHT22;13988;52.446;13.280;2022-11-25T09:23:36;4.80;99.90
26262;DHT22;13988;52.446;13.280;2022-11-25T09:26:03;4.80;99.90
26262;DHT22;13988;52.446;13.280;2022-11-25T09:28:30;4.80;99.90
26262;DHT22;13988;52.446;13.280;2022-11-25T09:30:55;4.80;99.90
26262;DHT22;13988;52.446;13.280;2022-11-25T09:33:21;4.80;99.90
26262;DHT22;13988;52.446;13.280;2022-11-25T09:35:47;4.80;99.90
26262;DHT22;13988;52.446;13.280;2022-11-25T09:38:14;4.90;99.90
26262;DHT22;13988;52.446;13.280;2022-11-25T09:43:43;4.90;99.90
26262;DHT22;13988;52.446;13.280;2022-11-25T09:47:02;5.00;99.90
26262;DHT22;13988;52.446;13.280;2022-11-25T09:55:08;5.30;99.90
26262;DHT22;13988;52.446;13.280;2022-11-25T10:00:40;5.30;99.90
26262;DHT22;13988;52.446;13.280;2022-11-25T10:03:37;5.30;99.90
26262;DHT22;13988;52.446;13.280;2022-11-25T10:08:41;5.40;99.90
26262;DHT22;13988;52.446;13.280;2022-11-25T10:11:16;5.50;99.90
26262;DHT22;13988;52.446;13.280;2022-11-25T10:17:00;5.70;99.90
26262;DHT22;13988;52.446;13.280;2022-11-25T10:24:40;5.80;99.90
26262;DHT22;13988;52.446;13.280;2022-11-25T10:27:06;5.90;99.90
26262;DHT22;13988;52.446;13.280;2022-11-25T10:29:39;6.00;99.90
26262;DHT22;13988;52.446;13.280;2022-11-25T10:32:22;6.00;99.90
26262;DHT22;13988;52.446;13.280;2022-11-25T10:35:00;6.00;99.90
26262;DHT22;13988;52.446;13.280;2022-11-25T10:37:32;6.20;99.90
26262;DHT22;13988;52.446;13.280;2022-11-25T10:40:00;6.20;99.90
26262;DHT22;13988;52.446;13.280;2022-11-25T10:42:27;6.30;99.90
26262;DHT22;13988;52.446;13.280;2022-11-25T10:44:53;6.40;99.90
26262;DHT22;13988;52.446;13.280;2022-11-25T10:50:19;6.50;99.90
26262;DHT22;13988;52.446;13.280;2022-11-25T10:55:29;6.50;99.90
26262;DHT22;13988;52.446;13.280;2022-11-25T10:57:56;6.50;99.90
26262;DHT22;13988;52.446;13.280;2022-11-25T11:00:30;6.60;99.90
26262;DHT22;13988;52.446;13.280;2022-11-25T11:02:57;6.50;99.90
26262;DHT22;13988;52.446;13.280;2022-11-25T11:05:28;6.60;99.90
26262;DHT22;13988;52.446;13.280;2022-11-25T11:08:37;6.70;99.90
26262;DHT22;13988;52.446;13.280;2022-11-25T11:11:18;6.70;99.90
26262;DHT22;13988;52.446;13.280;2022-11-25T11:13:45;6.80;99.90
26262;DHT22;13988;52.446;13.280;2022-11-25T11:16:33;7.00;99.90
26262;DHT22;13988;52.446;13.280;2022-11-25T11:19:00;7.00;99.90
26262;DHT22;13988;52.446;13.280;2022-11-25T11:23:55;7.10;99.90
26262;DHT22;13988;52.446;13.280;2022-11-25T11:29:14;7.20;99.90
26262;DHT22;13988;52.446;13.280;2022-11-25T11:31:46;7.20;99.90
26262;DHT22;13988;52.446;13.280;2022-11-25T11:51:09;8.10;99.90
26262;DHT22;13988;52.446;13.280;2022-11-25T12:07:30;8.10;99.90
26262;DHT22;13988;52.446;13.280;2022-11-25T12:10:22;8.00;99.90
26262;DHT22;13988;52.446;13.280;2022-11-25T12:21:04;8.70;99.90
26262;DHT22;13988;52.446;13.280;2022-11-25T12:26:21;8.00;99.90
26262;DHT22;13988;52.446;13.280;2022-11-25T12:28:57;8.00;99.90
26262;DHT22;13988;52.446;13.280;2022-11-25T12:31:34;7.70;99.90
26262;DHT22;13988;52.446;13.280;2022-11-25T12:34:29;7.50;99.90
26262;DHT22;13988;52.446;13.280;2022-11-25T12:37:04;7.40;99.90
26262;DHT22;13988;52.446;13.280;2022-11-25T12:39:40;7.70;99.90
26262;DHT22;13988;52.446;13.280;2022-11-25T12:42:22;7.50;99.90
26262;DHT22;13988;52.446;13.280;2022-11-25T12:45:02;7.60;99.90
26262;DHT22;13988;52.446;13.280;2022-11-25T12:47:30;7.80;99.90
26262;DHT22;13988;52.446;13.280;2022-11-25T12:49:56;8.10;99.90
26262;DHT22;13988;52.446;13.280;2022-11-25T13:00:21;8.30;99.90
26262;DHT22;13988;52.446;13.280;2022-11-25T13:14:18;7.50;99.90
26262;DHT22;13988;52.446;13.280;2022-11-25T13:16:49;7.40;99.90
26262;DHT22;13988;52.446;13.280;2022-11-25T13:19:18;7.30;99.90
26262;DHT22;13988;52.446;13.280;2022-11-25T13:22:01;7.30;99.90
26262;DHT22;13988;52.446;13.280;2022-11-25T13:24:29;7.20;99.90
26262;DHT22;13988;52.446;13.280;2022-11-25T13:26:56;7.10;99.90
26262;DHT22;13988;52.446;13.280;2022-11-25T13:36:59;7.10;99.90
26262;DHT22;13988;52.446;13.280;2022-11-25T13:39:34;7.10;99.90
26262;DHT22;13988;52.446;13.280;2022-11-25T13:42:26;7.20;99.90
26262;DHT22;13988;52.446;13.280;2022-11-25T13:44:56;7.10;99.90
26262;DHT22;13988;52.446;13.280;2022-11-25T13:47:32;7.10;99.90
26262;DHT22;13988;52.446;13.280;2022-11-25T13:50:21;7.00;99.90
26262;DHT22;13988;52.446;13.280;2022-11-25T13:53:02;7.00;99.90
26262;DHT22;13988;52.446;13.280;2022-11-25T14:25:08;6.90;99.90
26262;DHT22;13988;52.446;13.280;2022-11-25T14:27:37;6.90;99.90
26262;DHT22;13988;52.446;13.280;2022-11-25T14:30:05;6.90;99.90
26262;DHT22;13988;52.446;13.280;2022-11-25T14:33:03;6.90;99.90
26262;DHT22;13988;52.446;13.280;2022-11-25T14:35:47;6.90;99.90
26262;DHT22;13988;52.446;13.280;2022-11-25T14:38:19;6.90;99.90
26262;DHT22;13988;52.446;13.280;2022-11-25T14:43:20;6.80;99.90
26262;DHT22;13988;52.446;13.280;2022-11-25T14:45:46;6.70;99.90
26262;DHT22;13988;52.446;13.280;2022-11-25T14:48:16;6.70;99.90
26262;DHT22;13988;52.446;13.280;2022-11-25T14:50:55;6.60;99.90
26262;DHT22;13988;52.446;13.280;2022-11-25T14:53:23;6.60;99.90
26262;DHT22;13988;52.446;13.280;2022-11-25T14:55:50;6.60;99.90
26262;DHT22;13988;52.446;13.280;2022-11-25T14:58:15;6.60;99.90
26262;DHT22;13988;52.446;13.280;2022-11-25T15:01:18;6.60;99.90
26262;DHT22;13988;52.446;13.280;2022-11-25T15:03:59;6.50;99.90
26262;DHT22;13988;52.446;13.280;2022-11-25T15:06:32;6.50;99.90
26262;DHT22;13988;52.446;13.280;2022-11-25T15:08:59;6.50;99.90
26262;DHT22;13988;52.446;13.280;2022-11-25T15:11:30;6.50;99.90
26262;DHT22;13988;52.446;13.280;2022-11-25T15:14:03;6.40;99.90
26262;DHT22;13988;52.446;13.280;2022-11-25T15:16:34;6.40;99.90
26262;DHT22;13988;52.446;13.280;2022-11-25T15:19:06;6.40;99.90
26262;DHT22;13988;52.446;13.280;2022-11-25T15:21:40;6.40;99.90
26262;DHT22;13988;52.446;13.280;2022-11-25T15:24:23;6.30;99.90
26262;DHT22;13988;52.446;13.280;2022-11-25T15:26:51;6.30;99.90
26262;DHT22;13988;52.446;13.280;2022-11-25T15:29:17;6.30;99.90
26262;DHT22;13988;52.446;13.280;2022-11-25T15:31:44;6.30;99.90
26262;DHT22;13988;52.446;13.280;2022-11-25T15:34:12;6.30;99.90
26262;DHT22;13988;52.446;13.280;2022-11-25T15:36:39;6.30;99.90
26262;DHT22;13988;52.446;13.280;2022-11-25T15:39:24;6.40;99.90
26262;DHT22;13988;52.446;13.280;2022-11-25T15:42:40;6.30;99.90
26262;DHT22;13988;52.446;13.280;2022-11-25T15:47:23;6.30;99.90
26262;DHT22;13988;52.446;13.280;2022-11-25T15:52:28;6.30;99.90
26262;DHT22;13988;52.446;13.280;2022-11-25T15:55:02;6.20;99.90
26262;DHT22;13988;52.446;13.280;2022-11-25T15:57:33;6.30;99.90
26262;DHT22;13988;52.446;13.280;2022-11-25T16:02:37;6.20;99.90
26262;DHT22;13988;52.446;13.280;2022-11-25T16:07:39;6.30;99.90
26262;DHT22;13988;52.446;13.280;2022-11-25T16:16:16;6.30;99.90
26262;DHT22;13988;52.446;13.280;2022-11-25T16:21:21;6.30;99.90
26262;DHT22;13988;52.446;13.280;2022-11-25T16:23:50;6.30;99.90
26262;DHT22;13988;52.446;13.280;2022-11-25T16:28:54;6.30;99.90
26262;DHT22;13988;52.446;13.280;2022-11-25T16:31:20;6.30;99.90
26262;DHT22;13988;52.446;13.280;2022-11-25T16:33:46;6.30;99.90
26262;DHT22;13988;52.446;13.280;2022-11-25T16:36:12;6.30;99.90
26262;DHT22;13988;52.446;13.280;2022-11-25T16:38:37;6.30;99.90
26262;DHT22;13988;52.446;13.280;2022-11-25T16:41:21;6.30;99.90
26262;DHT22;13988;52.446;13.280;2022-11-25T16:43:47;6.30;99.90
26262;DHT22;13988;52.446;13.280;2022-11-25T16:46:16;6.30;99.90
26262;DHT22;13988;52.446;13.280;2022-11-25T16:48:42;6.30;99.90
26262;DHT22;13988;52.446;13.280;2022-11-25T16:51:13;6.30;99.90
26262;DHT22;13988;52.446;13.280;2022-11-25T16:53:40;6.30;99.90
26262;DHT22;13988;52.446;13.280;2022-11-25T16:56:10;6.40;99.90
26262;DHT22;13988;52.446;13.280;2022-11-25T16:58:36;6.30;99.90
26262;DHT22;13988;52.446;13.280;2022-11-25T17:01:02;6.30;99.90
26262;DHT22;13988;52.446;13.280;2022-11-25T17:03:28;6.30;99.90
26262;DHT22;13988;52.446;13.280;2022-11-25T17:05:53;6.30;99.90
26262;DHT22;13988;52.446;13.280;2022-11-25T17:08:20;6.30;99.90
26262;DHT22;13988;52.446;13.280;2022-11-25T17:10:46;6.30;99.90
26262;DHT22;13988;52.446;13.280;2022-11-25T17:13:20;6.30;99.90
26262;DHT22;13988;52.446;13.280;2022-11-25T17:15:47;6.30;99.90
26262;DHT22;13988;52.446;13.280;2022-11-25T17:18:14;6.30;99.90
26262;DHT22;13988;52.446;13.280;2022-11-25T17:20:43;6.30;99.90
26262;DHT22;13988;52.446;13.280;2022-11-25T17:23:15;6.30;99.90
26262;DHT22;13988;52.446;13.280;2022-11-25T17:25:46;6.20;99.90
26262;DHT22;13988;52.446;13.280;2022-11-25T17:28:17;6.30;99.90
26262;DHT22;13988;52.446;13.280;2022-11-25T17:30:45;6.30;99.90
26262;DHT22;13988;52.446;13.280;2022-11-25T17:33:16;6.30;99.90
26262;DHT22;13988;52.446;13.280;2022-11-25T17:35:43;6.30;99.90
26262;DHT22;13988;52.446;13.280;2022-11-25T17:38:22;6.30;99.90
26262;DHT22;13988;52.446;13.280;2022-11-25T17:40:47;6.30;99.90
26262;DHT22;13988;52.446;13.280;2022-11-25T17:43:17;6.30;99.90
26262;DHT22;13988;52.446;13.280;2022-11-25T17:45:44;6.40;99.90
26262;DHT22;13988;52.446;13.280;2022-11-25T17:48:14;6.30;99.90
26262;DHT22;13988;52.446;13.280;2022-11-25T17:50:40;6.30;99.90
26262;DHT22;13988;52.446;13.280;2022-11-25T17:53:07;6.30;99.90
26262;DHT22;13988;52.446;13.280;2022-11-25T17:55:35;6.30;99.90
26262;DHT22;13988;52.446;13.280;2022-11-25T17:58:02;6.20;99.90
26262;DHT22;13988;52.446;13.280;2022-11-25T18:00:28;6.30;99.90
26262;DHT22;13988;52.446;13.280;2022-11-25T18:02:53;6.20;99.90
26262;DHT22;13988;52.446;13.280;2022-11-25T18:05:21;6.30;99.90
26262;DHT22;13988;52.446;13.280;2022-11-25T18:07:48;6.20;99.90
26262;DHT22;13988;52.446;13.280;2022-11-25T18:10:16;6.20;99.90
26262;DHT22;13988;52.446;13.280;2022-11-25T18:12:47;6.30;99.90
26262;DHT22;13988;52.446;13.280;2022-11-25T18:15:19;6.30;99.90
26262;DHT22;13988;52.446;13.280;2022-11-25T18:17:46;6.20;99.90
26262;DHT22;13988;52.446;13.280;2022-11-25T18:20:21;6.40;99.90
26262;DHT22;13988;52.446;13.280;2022-11-25T18:22:49;6.20;99.90
26262;DHT22;13988;52.446;13.280;2022-11-25T18:25:16;6.30;99.90
26262;DHT22;13988;52.446;13.280;2022-11-25T18:27:43;6.30;99.90
26262;DHT22;13988;52.446;13.280;2022-11-25T18:30:16;6.30;99.90
26262;DHT22;13988;52.446;13.280;2022-11-25T18:32:42;6.30;99.90
26262;DHT22;13988;52.446;13.280;2022-11-25T18:35:17;6.30;99.90
26262;DHT22;13988;52.446;13.280;2022-11-25T18:37:44;6.30;99.90